Time;durP1;ratioP1;P1;durP2;ratioP2;P2;SDS_P1;SDS_P2;PMS_P1;PMS_P2;Temp;Humidity;BMP_temperature;BMP_pressure;BME280_temperature;BME280_humidity;BME280_pressure;Samples;Min_cycle;Max_cycle;Signal;HPM_P1;HPM_P2
2022/06/10 00:00:53;;;;;;;7.15;4.75;;;12.60;99.90;;;;;;5101261;28;20032;-52
2022/06/10 00:03:20;;;;;;;6.55;4.75;;;12.60;99.90;;;;;;5100280;28;20096;-54
2022/06/10 00:05:49;;;;;;;5.68;4.55;;;12.50;99.90;;;;;;5078742;28;20068;-51
2022/06/10 00:08:19;;;;;;;8.30;4.78;;;12.50;99.90;;;;;;5099637;28;20043;-50
2022/06/10 00:10:45;;;;;;;5.03;4.32;;;12.50;99.90;;;;;;5102132;28;20016;-53
2022/06/10 00:13:12;;;;;;;7.82;5.28;;;12.50;99.90;;;;;;5101136;28;20562;-53
2022/06/10 00:15:38;;;;;;;7.70;4.60;;;12.50;99.90;;;;;;5101154;28;20031;-48
2022/06/10 00:18:04;;;;;;;8.90;5.07;;;12.50;99.90;;;;;;5099105;28;20032;-51
2022/06/10 00:20:31;;;;;;;8.13;5.50;;;12.50;99.90;;;;;;5101227;28;20022;-54
2022/06/10 00:22:57;;;;;;;6.78;4.93;;;12.50;99.90;;;;;;5100315;28;20019;-53
2022/06/10 00:25:23;;;;;;;7.10;5.80;;;12.50;99.90;;;;;;5101420;28;20069;-50
2022/06/10 00:27:50;;;;;;;7.55;4.78;;;12.40;99.90;;;;;;5082762;28;20436;-50
2022/06/10 00:30:18;;;;;;;7.15;5.13;;;12.40;99.90;;;;;;5101784;28;20058;-53
2022/06/10 00:32:43;;;;;;;7.90;5.43;;;12.30;99.90;;;;;;5087302;28;20024;-50
2022/06/10 00:35:10;;;;;;;7.50;5.20;;;12.30;99.90;;;;;;5104501;28;20062;-50
2022/06/10 00:37:36;;;;;;;8.35;5.53;;;12.30;99.90;;;;;;5097365;28;20074;-53
2022/06/10 00:40:06;;;;;;;7.00;5.35;;;12.30;99.90;;;;;;5105877;28;20019;-52
2022/06/10 00:42:32;;;;;;;6.25;5.53;;;12.20;99.90;;;;;;5079151;28;20482;-49
2022/06/10 00:44:58;;;;;;;6.60;4.97;;;12.20;99.90;;;;;;5098807;28;20073;-53
2022/06/10 00:47:32;;;;;;;5.57;4.80;;;12.20;99.90;;;;;;5102768;28;20103;-53
2022/06/10 00:50:20;;;;;;;12.25;5.53;;;12.10;99.90;;;;;;5098883;28;20058;-54
2022/06/10 00:53:04;;;;;;;8.32;5.88;;;12.10;99.90;;;;;;5099421;28;20043;-49
2022/06/10 00:55:30;;;;;;;5.68;4.50;;;12.10;99.90;;;;;;5089916;28;20497;-54
2022/06/10 00:58:14;;;;;;;6.03;4.53;;;12.00;99.90;;;;;;5100174;28;20352;-51
2022/06/10 01:00:40;;;;;;;6.95;5.03;;;12.00;99.90;;;;;;5099245;28;20025;-52
2022/06/10 01:03:05;;;;;;;7.13;4.60;;;12.00;99.90;;;;;;5096671;28;20020;-50
2022/06/10 01:05:31;;;;;;;6.47;4.55;;;12.00;99.90;;;;;;5100952;28;20015;-50
2022/06/10 01:08:08;;;;;;;5.57;4.97;;;11.90;99.90;;;;;;5099173;28;20039;-50
2022/06/10 01:10:57;;;;;;;9.20;6.07;;;11.90;99.90;;;;;;5100593;28;20031;-52
2022/06/10 01:14:00;;;;;;;8.20;4.72;;;11.90;99.90;;;;;;5100871;28;20019;-51
2022/06/10 01:16:54;;;;;;;7.38;4.60;;;11.90;99.90;;;;;;5093185;28;20032;-51
2022/06/10 01:19:57;;;;;;;7.95;5.80;;;11.90;99.90;;;;;;5082380;28;20517;-51
2022/06/10 01:22:55;;;;;;;4.90;4.32;;;11.80;99.90;;;;;;5063361;28;20030;-52
2022/06/10 01:25:39;;;;;;;6.63;4.22;;;11.70;99.90;;;;;;5079503;28;20023;-53
2022/06/10 01:28:20;;;;;;;11.38;6.38;;;11.70;99.90;;;;;;5077934;28;20078;-53
2022/06/10 01:30:51;;;;;;;8.75;5.93;;;11.70;99.90;;;;;;5079141;28;20018;-53
2022/06/10 01:33:17;;;;;;;8.18;4.38;;;11.60;99.90;;;;;;5092896;28;20027;-52
2022/06/10 01:35:57;;;;;;;10.52;5.57;;;11.60;99.90;;;;;;5104499;28;20020;-51
2022/06/10 01:38:44;;;;;;;6.60;4.88;;;11.50;99.90;;;;;;5097001;28;20026;-49
2022/06/10 01:41:14;;;;;;;7.85;5.47;;;11.50;99.90;;;;;;5099926;28;20157;-52
2022/06/10 01:43:43;;;;;;;8.02;4.88;;;11.40;99.90;;;;;;5102745;28;20011;-49
2022/06/10 01:46:30;;;;;;;10.65;5.63;;;11.40;99.90;;;;;;5101564;28;20393;-49
2022/06/10 01:49:13;;;;;;;8.90;5.30;;;11.40;99.90;;;;;;5101904;28;20142;-51
2022/06/10 01:51:38;;;;;;;9.15;5.15;;;11.40;99.90;;;;;;5103000;28;20047;-51
2022/06/10 01:54:12;;;;;;;6.50;4.80;;;11.40;99.90;;;;;;5102950;28;20623;-52
2022/06/10 01:56:44;;;;;;;8.93;6.00;;;11.30;99.90;;;;;;5103892;28;20027;-53
2022/06/10 01:59:26;;;;;;;9.57;6.43;;;11.30;99.90;;;;;;5097463;28;20020;-52
2022/06/10 02:01:59;;;;;;;8.82;5.47;;;11.30;99.90;;;;;;5079226;28;20017;-51
2022/06/10 02:04:30;;;;;;;8.23;5.47;;;11.20;99.90;;;;;;5079563;28;20027;-49
2022/06/10 02:07:12;;;;;;;9.05;6.53;;;11.30;99.90;;;;;;5095216;28;20024;-51
2022/06/10 02:09:51;;;;;;;7.72;5.47;;;11.20;99.90;;;;;;5103277;28;20550;-50
2022/06/10 02:12:27;;;;;;;8.73;5.47;;;11.20;99.90;;;;;;5092441;28;20023;-52
2022/06/10 02:14:57;;;;;;;;;;;11.20;99.90;;;;;;5101346;28;20020;-49
2022/06/10 02:17:27;;;;;;;7.50;5.88;;;11.20;99.90;;;;;;5104804;28;19908;-48
2022/06/10 02:19:58;;;;;;;7.47;6.57;;;11.10;99.90;;;;;;5093695;28;20512;-50
2022/06/10 02:22:37;;;;;;;10.50;7.07;;;11.10;99.90;;;;;;5105180;28;20020;-50
2022/06/10 02:25:14;;;;;;;8.38;6.47;;;11.10;99.90;;;;;;5102579;28;20024;-51
2022/06/10 02:27:44;;;;;;;7.53;6.80;;;11.10;99.90;;;;;;5086178;28;20516;-48
2022/06/10 02:30:20;;;;;;;7.43;6.13;;;11.00;99.90;;;;;;5103217;28;20149;-48
2022/06/10 02:32:46;;;;;;;7.82;5.85;;;11.00;99.90;;;;;;5083094;28;20023;-48
2022/06/10 02:35:14;;;;;;;6.80;5.63;;;11.00;99.90;;;;;;5103372;28;20034;-51
2022/06/10 02:37:40;;;;;;;10.18;6.15;;;10.90;99.90;;;;;;5096295;28;20016;-49
2022/06/10 02:40:49;;;;;;;8.75;6.22;;;10.90;99.90;;;;;;5102279;28;20038;-48
2022/06/10 02:43:23;;;;;;;8.18;6.57;;;10.90;99.90;;;;;;5004446;28;20026;-48
2022/06/10 02:46:32;;;;;;;7.32;5.88;;;10.90;99.90;;;;;;5083951;28;20015;-52
2022/06/10 02:49:18;;;;;;;6.53;5.50;;;10.90;99.90;;;;;;5044692;28;20040;-49
2022/06/10 02:51:46;;;;;;;6.30;5.15;;;10.80;99.90;;;;;;5101909;28;20027;-48
2022/06/10 02:54:15;;;;;;;10.35;6.05;;;10.80;99.90;;;;;;5102983;28;20024;-48
2022/06/10 02:56:41;;;;;;;12.00;6.22;;;10.80;99.90;;;;;;5103440;28;20479;-48
2022/06/10 03:02:24;;;;;;;6.82;6.00;;;10.70;99.90;;;;;;5100440;28;20513;-48
2022/06/10 03:05:10;;;;;;;9.05;5.97;;;10.70;99.90;;;;;;5102692;28;20031;-51
2022/06/10 03:08:01;;;;;;;7.90;6.78;;;10.70;99.90;;;;;;5099318;28;20020;-50
2022/06/10 03:10:41;;;;;;;6.93;5.15;;;10.70;99.90;;;;;;5094326;28;20030;-49
2022/06/10 03:13:27;;;;;;;8.43;6.53;;;10.70;99.90;;;;;;5100405;28;20122;-47
2022/06/10 03:16:11;;;;;;;8.73;5.95;;;10.60;99.90;;;;;;5100416;28;20482;-50
2022/06/10 03:18:55;;;;;;;8.45;5.90;;;10.60;99.90;;;;;;5102682;28;20027;-48
2022/06/10 03:22:04;;;;;;;7.43;5.65;;;10.60;99.90;;;;;;5091403;28;20015;-51
2022/06/10 03:24:33;;;;;;;8.18;5.93;;;10.60;99.90;;;;;;5059386;28;20028;-48
2022/06/10 03:27:11;;;;;;;9.32;5.88;;;10.60;99.90;;;;;;5101200;28;20478;-47
2022/06/10 03:30:05;;;;;;;7.60;5.22;;;10.60;99.90;;;;;;5093856;28;20024;-50
2022/06/10 03:32:46;;;;;;;7.63;5.30;;;10.60;99.90;;;;;;5094542;28;20008;-49
2022/06/10 03:35:19;;;;;;;7.47;6.65;;;10.60;99.90;;;;;;5102450;28;20054;-52
2022/06/10 03:37:45;;;;;;;8.40;5.60;;;10.60;99.90;;;;;;5083105;28;20024;-50
2022/06/10 03:40:20;;;;;;;6.82;5.72;;;10.60;99.90;;;;;;5101875;28;20023;-50
2022/06/10 03:42:52;;;;;;;10.80;6.15;;;10.60;99.90;;;;;;5083540;28;20691;-48
2022/06/10 03:45:21;;;;;;;6.82;5.63;;;10.60;99.90;;;;;;5089673;28;20035;-48
2022/06/10 03:47:47;;;;;;;6.57;5.30;;;10.60;99.90;;;;;;5081677;28;20515;-49
2022/06/10 03:50:21;;;;;;;10.43;6.10;;;10.60;99.90;;;;;;5101849;28;20110;-50
2022/06/10 03:52:47;;;;;;;10.18;5.55;;;10.70;99.90;;;;;;5100381;28;20020;-48
2022/06/10 03:55:16;;;;;;;7.25;5.57;;;10.70;99.90;;;;;;5101940;28;20012;-50
2022/06/10 03:57:42;;;;;;;8.98;6.43;;;10.70;99.90;;;;;;5083564;28;20023;-48
2022/06/10 04:00:13;;;;;;;8.32;6.55;;;10.70;99.90;;;;;;5101488;28;20050;-52
2022/06/10 04:02:39;;;;;;;7.80;5.85;;;10.70;99.90;;;;;;5101657;28;20026;-51
2022/06/10 04:05:05;;;;;;;7.43;5.65;;;10.70;99.90;;;;;;5099710;28;20087;-49
2022/06/10 04:07:30;;;;;;;9.20;5.50;;;10.70;99.90;;;;;;5083557;28;20030;-52
2022/06/10 04:09:56;;;;;;;7.93;5.60;;;10.70;99.90;;;;;;5100552;28;20108;-49
2022/06/10 04:12:22;;;;;;;7.55;5.32;;;10.70;99.90;;;;;;5094077;28;20158;-53
2022/06/10 04:14:47;;;;;;;7.88;5.70;;;10.70;99.90;;;;;;5104630;28;20019;-47
2022/06/10 04:17:13;;;;;;;10.35;6.80;;;10.80;99.90;;;;;;5098089;28;20024;-50
2022/06/10 04:19:39;;;;;;;7.80;6.45;;;10.80;99.90;;;;;;5103761;28;20029;-50
2022/06/10 04:22:05;;;;;;;9.63;5.47;;;10.80;99.90;;;;;;5080382;28;20537;-49
2022/06/10 04:24:30;;;;;;;6.90;6.10;;;10.80;99.90;;;;;;5103387;28;20027;-52
2022/06/10 04:26:56;;;;;;;7.75;6.88;;;10.80;99.90;;;;;;5100320;28;20032;-51
2022/06/10 04:29:22;;;;;;;7.38;6.10;;;10.90;99.90;;;;;;5097675;28;20095;-49
2022/06/10 04:31:48;;;;;;;7.07;5.05;;;10.90;99.90;;;;;;5085306;28;20666;-47
2022/06/10 04:34:15;;;;;;;8.07;5.90;;;10.90;99.90;;;;;;5097640;28;20036;-51
2022/06/10 04:36:40;;;;;;;8.60;6.60;;;10.90;99.90;;;;;;5103517;28;20049;-49
2022/06/10 04:39:06;;;;;;;11.50;6.28;;;11.00;99.90;;;;;;5098665;28;20020;-47
2022/06/10 04:41:33;;;;;;;9.35;6.50;;;11.00;99.90;;;;;;5103138;28;20023;-48
2022/06/10 04:43:58;;;;;;;10.20;6.65;;;11.00;99.90;;;;;;5074627;28;20021;-48
2022/06/10 04:46:31;;;;;;;10.93;6.60;;;11.10;99.90;;;;;;5080977;28;20032;-47
2022/06/10 04:48:58;;;;;;;11.38;7.28;;;11.10;99.90;;;;;;5085812;28;20097;-52
2022/06/10 04:51:24;;;;;;;13.07;7.13;;;11.20;99.90;;;;;;5097779;28;20031;-52
2022/06/10 04:53:50;;;;;;;10.27;7.22;;;11.30;99.90;;;;;;5104750;28;20074;-50
2022/06/10 04:56:16;;;;;;;10.32;6.15;;;11.30;99.90;;;;;;5097537;28;20056;-50
2022/06/10 04:58:41;;;;;;;8.75;6.55;;;11.40;99.90;;;;;;5086368;28;20065;-48
2022/06/10 05:01:07;;;;;;;12.93;7.72;;;11.40;99.90;;;;;;5098506;28;20501;-50
2022/06/10 05:03:32;;;;;;;12.93;7.20;;;11.50;99.90;;;;;;5098896;28;20020;-48
2022/06/10 05:05:58;;;;;;;11.60;8.00;;;11.60;99.90;;;;;;5108240;28;20501;-51
2022/06/10 05:08:24;;;;;;;16.63;7.53;;;11.70;99.90;;;;;;5083144;28;20103;-53
2022/06/10 05:10:50;;;;;;;10.45;7.07;;;11.80;99.90;;;;;;5079294;28;20028;-50
2022/06/10 05:13:16;;;;;;;12.50;7.80;;;11.80;99.90;;;;;;5086527;28;20023;-49
2022/06/10 05:15:43;;;;;;;12.43;6.47;;;11.90;99.90;;;;;;5103300;28;20111;-50
2022/06/10 05:18:10;;;;;;;14.90;7.32;;;12.00;99.90;;;;;;5103909;28;20054;-50
2022/06/10 05:20:39;;;;;;;10.00;7.07;;;12.10;99.90;;;;;;5104917;28;20031;-53
2022/06/10 05:23:07;;;;;;;9.32;6.88;;;12.10;99.90;;;;;;5103381;28;20082;-48
2022/06/10 05:25:33;;;;;;;14.30;7.10;;;12.20;99.90;;;;;;5106810;28;20024;-50
2022/06/10 05:27:59;;;;;;;9.73;5.90;;;12.30;99.90;;;;;;5084677;28;20031;-50
2022/06/10 05:30:27;;;;;;;7.18;5.28;;;12.30;99.90;;;;;;5104919;28;20023;-50
2022/06/10 05:32:53;;;;;;;9.75;5.32;;;12.40;99.90;;;;;;5083971;28;20478;-51
2022/06/10 05:35:19;;;;;;;9.43;5.05;;;12.50;99.90;;;;;;5104743;28;20039;-49
2022/06/10 05:37:46;;;;;;;13.35;6.07;;;12.70;99.90;;;;;;5103420;28;20430;-53
2022/06/10 05:40:14;;;;;;;11.40;5.07;;;12.90;99.90;;;;;;5086445;28;20042;-52
2022/06/10 05:42:40;;;;;;;10.00;4.88;;;13.10;99.90;;;;;;5105029;28;20099;-53
2022/06/10 05:45:06;;;;;;;8.98;4.25;;;13.20;99.90;;;;;;5084958;28;20485;-51
2022/06/10 05:47:34;;;;;;;14.25;4.40;;;13.40;99.90;;;;;;5104376;28;20401;-54
2022/06/10 05:50:04;;;;;;;6.95;3.83;;;13.60;99.90;;;;;;5100441;28;20111;-51
2022/06/10 05:52:31;;;;;;;7.40;3.70;;;13.80;99.90;;;;;;5104147;28;20019;-53
2022/06/10 05:55:00;;;;;;;6.40;3.25;;;14.00;99.90;;;;;;5103220;28;20435;-52
2022/06/10 05:57:27;;;;;;;13.40;3.22;;;14.20;99.90;;;;;;5104365;28;20023;-49
2022/06/10 05:59:53;;;;;;;5.88;4.03;;;14.40;99.90;;;;;;5085335;28;20808;-51
2022/06/10 06:02:21;;;;;;;6.47;2.70;;;14.50;99.90;;;;;;5104291;28;20086;-51
2022/06/10 06:04:48;;;;;;;7.13;2.90;;;14.70;99.90;;;;;;5102746;28;20495;-51
2022/06/10 06:07:23;;;;;;;5.88;2.40;;;14.90;99.90;;;;;;5091525;28;20516;-49
2022/06/10 06:09:49;;;;;;;7.88;3.38;;;15.10;99.90;;;;;;5084516;28;20041;-50
2022/06/10 06:12:14;;;;;;;5.43;2.72;;;15.30;99.90;;;;;;5091836;28;20024;-53
2022/06/10 06:14:40;;;;;;;7.95;2.33;;;15.40;99.90;;;;;;5086583;28;20020;-50
2022/06/10 06:17:06;;;;;;;5.45;2.28;;;15.60;99.90;;;;;;5101263;28;20032;-51
2022/06/10 06:19:33;;;;;;;4.70;2.10;;;15.70;99.90;;;;;;5105044;28;20018;-51
2022/06/10 06:21:59;;;;;;;8.20;2.97;;;15.90;99.90;;;;;;5083161;28;20020;-52
2022/06/10 06:24:25;;;;;;;5.32;2.33;;;16.00;99.90;;;;;;5104669;28;20016;-51
2022/06/10 06:26:51;;;;;;;5.63;2.15;;;16.20;99.90;;;;;;5103281;28;20102;-51
2022/06/10 06:29:18;;;;;;;8.93;2.30;;;16.40;99.90;;;;;;5081704;28;20114;-48
2022/06/10 06:31:44;;;;;;;9.88;1.95;;;16.60;99.90;;;;;;5105242;28;20023;-53
2022/06/10 06:34:09;;;;;;;6.72;2.10;;;16.70;99.90;;;;;;5100655;28;20134;-48
2022/06/10 06:36:46;;;;;;;4.22;1.40;;;16.80;99.90;;;;;;5104880;28;20524;-49
2022/06/10 06:39:12;;;;;;;4.65;1.40;;;17.00;99.90;;;;;;5100190;28;20516;-50
2022/06/10 06:41:38;;;;;;;4.85;1.70;;;17.20;99.90;;;;;;5106572;28;20358;-49
2022/06/10 06:44:05;;;;;;;6.57;1.85;;;17.40;99.90;;;;;;5101616;28;20028;-50
2022/06/10 06:46:33;;;;;;;7.15;1.98;;;17.50;99.90;;;;;;5099929;28;20507;-52
2022/06/10 06:48:59;;;;;;;7.60;2.47;;;17.70;99.90;;;;;;5103935;28;20104;-51
2022/06/10 06:51:26;;;;;;;7.05;1.77;;;17.90;99.90;;;;;;5099394;28;20024;-53
2022/06/10 06:53:51;;;;;;;6.32;2.03;;;18.00;99.90;;;;;;5088482;28;20047;-51
2022/06/10 06:56:17;;;;;;;5.30;1.63;;;18.20;99.90;;;;;;5099826;28;20028;-51
2022/06/10 06:58:43;;;;;;;2.63;1.23;;;18.30;99.90;;;;;;5088588;28;20111;-50
2022/06/10 07:01:08;;;;;;;4.00;1.52;;;18.50;99.90;;;;;;5081900;28;20086;-54
2022/06/10 07:03:34;;;;;;;6.30;1.27;;;18.70;99.90;;;;;;5099207;28;20024;-50
2022/06/10 07:05:59;;;;;;;4.90;1.73;;;18.90;99.90;;;;;;5106008;28;20508;-47
2022/06/10 07:08:31;;;;;;;4.85;1.50;;;19.10;99.90;;;;;;5099393;28;20047;-48
2022/06/10 07:10:58;;;;;;;4.53;1.65;;;19.30;99.90;;;;;;5096543;28;20035;-51
2022/06/10 07:13:25;;;;;;;5.03;1.33;;;19.50;99.90;;;;;;5102522;28;20047;-50
2022/06/10 07:15:50;;;;;;;4.20;1.73;;;19.60;99.90;;;;;;5100340;28;20166;-49
2022/06/10 07:18:16;;;;;;;5.30;1.42;;;19.70;99.90;;;;;;5102995;28;20088;-49
2022/06/10 07:20:42;;;;;;;5.13;1.98;;;19.90;99.90;;;;;;5084066;28;20024;-49
2022/06/10 07:23:08;;;;;;;3.92;1.50;;;20.10;99.90;;;;;;5101540;28;20035;-51
2022/06/10 07:25:34;;;;;;;6.22;1.58;;;20.30;99.90;;;;;;5084962;28;20390;-50
2022/06/10 07:28:00;;;;;;;5.40;1.98;;;20.30;99.90;;;;;;5082122;28;20032;-51
2022/06/10 07:30:28;;;;;;;4.80;1.60;;;20.50;99.90;;;;;;5102629;28;20026;-48
2022/06/10 07:32:54;;;;;;;3.25;1.55;;;20.50;99.90;;;;;;5099694;28;20036;-51
2022/06/10 07:35:20;;;;;;;3.03;1.23;;;20.50;99.90;;;;;;5084441;28;20027;-50
2022/06/10 07:37:47;;;;;;;7.13;1.60;;;20.70;99.90;;;;;;5101188;28;20022;-51
2022/06/10 07:43:07;;;;;;;5.75;1.80;;;20.90;99.90;;;;;;5101957;28;20164;-52
2022/06/10 07:45:34;;;;;;;5.82;1.45;;;21.00;99.90;;;;;;5102440;28;20099;-51
2022/06/10 07:47:59;;;;;;;4.15;1.67;;;21.10;99.90;;;;;;5100465;28;20031;-52
2022/06/10 07:50:26;;;;;;;7.40;1.80;;;21.30;99.90;;;;;;5096979;28;20020;-50
2022/06/10 07:52:52;;;;;;;6.40;1.27;;;21.40;99.90;;;;;;5084091;28;20048;-48
2022/06/10 07:55:19;;;;;;;4.20;1.27;;;21.50;99.90;;;;;;5102010;28;20051;-54
2022/06/10 07:57:45;;;;;;;5.82;1.42;;;21.70;99.90;;;;;;5102414;28;20505;-54
2022/06/10 08:00:12;;;;;;;4.43;1.60;;;21.70;99.30;;;;;;5101952;28;20019;-52
2022/06/10 08:02:38;;;;;;;4.05;1.10;;;21.90;98.30;;;;;;5083257;28;20069;-50
2022/06/10 08:05:06;;;;;;;4.57;1.50;;;21.90;99.90;;;;;;5099557;28;20439;-51
2022/06/10 08:07:32;;;;;;;5.72;1.90;;;22.10;99.90;;;;;;5102374;28;20027;-49
2022/06/10 08:09:57;;;;;;;2.60;1.20;;;22.20;97.00;;;;;;5100437;28;20027;-52
2022/06/10 08:12:23;;;;;;;4.22;1.30;;;22.20;97.90;;;;;;5092125;28;20035;-52
2022/06/10 08:14:49;;;;;;;4.97;1.45;;;22.30;98.70;;;;;;5104503;28;20058;-51
2022/06/10 08:17:15;;;;;;;5.20;1.80;;;22.40;96.80;;;;;;5097851;28;20020;-52
2022/06/10 08:19:40;;;;;;;6.43;1.42;;;22.40;96.70;;;;;;5104036;28;20069;-48
2022/06/10 08:24:51;;;;;;;6.03;1.92;;;22.70;97.50;;;;;;5106641;28;20026;-53
2022/06/10 08:27:17;;;;;;;6.30;1.90;;;22.70;92.20;;;;;;5079603;28;20020;-50
2022/06/10 08:29:44;;;;;;;5.20;1.63;;;22.80;95.10;;;;;;5079611;28;20024;-53
2022/06/10 08:32:09;;;;;;;4.57;1.35;;;23.00;93.10;;;;;;5103858;28;20118;-49
2022/06/10 08:34:36;;;;;;;4.68;1.50;;;23.10;94.50;;;;;;5097985;28;20445;-53
2022/06/10 08:37:03;;;;;;;4.53;1.23;;;23.10;92.30;;;;;;5104657;28;20031;-49
2022/06/10 08:39:29;;;;;;;4.30;1.00;;;23.20;94.90;;;;;;5097895;28;20070;-51
2022/06/10 08:42:18;;;;;;;4.32;1.70;;;23.20;94.30;;;;;;5105473;28;20428;-48
2022/06/10 08:44:56;;;;;;;3.78;1.40;;;23.10;92.30;;;;;;5076670;28;20032;-53
2022/06/10 08:47:27;;;;;;;2.63;1.25;;;23.20;92.30;;;;;;5069095;28;20026;-54
2022/06/10 08:50:12;;;;;;;4.53;1.40;;;23.20;92.00;;;;;;5098876;28;20494;-53
2022/06/10 08:53:00;;;;;;;5.28;1.75;;;23.30;91.10;;;;;;5100634;28;20072;-52
2022/06/10 08:56:03;;;;;;;5.13;1.95;;;23.50;92.80;;;;;;5101625;28;20376;-51
2022/06/10 08:58:39;;;;;;;5.35;1.45;;;23.20;90.50;;;;;;5096785;28;20065;-50
2022/06/10 09:01:17;;;;;;;2.15;1.10;;;23.30;91.50;;;;;;5099105;28;20068;-51
2022/06/10 09:03:54;;;;;;;4.18;1.77;;;23.40;91.60;;;;;;5093461;28;20081;-51
2022/06/10 09:06:29;;;;;;;5.80;1.67;;;23.60;92.50;;;;;;5092322;28;20016;-52
2022/06/10 09:09:01;;;;;;;4.50;1.52;;;23.70;92.50;;;;;;5098685;28;20059;-49
2022/06/10 09:11:43;;;;;;;5.50;2.42;;;23.80;92.10;;;;;;5097093;28;20026;-51
2022/06/10 09:14:16;;;;;;;7.90;1.55;;;23.70;90.20;;;;;;5098828;28;20027;-50
2022/06/10 09:16:47;;;;;;;3.85;1.40;;;23.60;90.40;;;;;;5100990;28;20024;-50
2022/06/10 09:19:16;;;;;;;4.82;1.35;;;23.80;93.90;;;;;;5099686;28;20011;-52
2022/06/10 09:22:01;;;;;;;8.18;2.72;;;23.80;91.90;;;;;;5100117;28;20047;-50
2022/06/10 09:24:37;;;;;;;8.10;1.97;;;24.00;90.50;;;;;;5094096;28;20019;-51
2022/06/10 09:27:05;;;;;;;5.40;2.05;;;23.90;90.80;;;;;;5098952;28;20027;-53
2022/06/10 09:29:32;;;;;;;3.67;1.98;;;23.60;90.00;;;;;;5097354;28;20016;-50
2022/06/10 09:32:11;;;;;;;6.97;2.22;;;23.30;91.20;;;;;;5103309;28;20020;-50
2022/06/10 09:35:07;;;;;;;4.05;1.80;;;23.00;92.30;;;;;;5097601;28;20047;-52
2022/06/10 09:37:58;;;;;;;4.57;2.00;;;23.00;92.70;;;;;;5090584;28;20036;-51
2022/06/10 09:40:37;;;;;;;3.28;1.73;;;23.10;91.20;;;;;;5071255;28;20024;-49
2022/06/10 09:43:22;;;;;;;6.28;1.80;;;23.30;91.80;;;;;;5100001;28;20093;-51
2022/06/10 09:45:54;;;;;;;6.38;1.80;;;23.20;93.70;;;;;;5101242;28;20023;-51
2022/06/10 09:48:51;;;;;;;3.83;1.50;;;23.00;93.30;;;;;;5092748;28;20048;-50
2022/06/10 09:51:38;;;;;;;7.13;1.83;;;22.70;92.70;;;;;;5079460;28;20020;-55
2022/06/10 09:54:46;;;;;;;7.20;1.67;;;22.50;91.80;;;;;;5090080;28;20058;-53
2022/06/10 09:57:31;;;;;;;5.95;2.17;;;22.20;92.60;;;;;;5089993;28;20131;-52
2022/06/10 10:00:19;;;;;;;5.50;2.47;;;22.00;94.00;;;;;;5103972;28;20052;-52
2022/06/10 10:03:10;;;;;;;8.35;2.22;;;21.90;93.70;;;;;;5104116;28;20076;-51
2022/06/10 10:06:11;;;;;;;4.55;1.92;;;21.70;92.70;;;;;;5100001;28;20016;-53
2022/06/10 10:09:14;;;;;;;5.30;1.33;;;21.60;95.20;;;;;;5034857;28;20032;-50
2022/06/10 10:11:51;;;;;;;2.97;1.45;;;21.60;96.10;;;;;;5092961;28;20443;-53
2022/06/10 10:14:30;;;;;;;7.68;2.30;;;21.70;97.00;;;;;;5094440;28;20474;-51
2022/06/10 10:17:26;;;;;;;3.97;1.67;;;21.80;95.80;;;;;;5103221;28;20498;-54
2022/06/10 10:20:11;;;;;;;4.25;1.70;;;22.00;95.50;;;;;;5104475;28;20023;-50
2022/06/10 10:22:39;;;;;;;4.32;1.83;;;21.90;95.50;;;;;;5100543;28;20478;-52
2022/06/10 10:25:14;;;;;;;5.63;2.03;;;22.00;95.80;;;;;;5108748;28;20028;-53
2022/06/10 10:27:40;;;;;;;6.13;2.20;;;22.30;99.50;;;;;;5100500;28;20103;-51
2022/06/10 10:30:21;;;;;;;5.07;1.55;;;22.50;96.70;;;;;;5102794;28;20451;-50
2022/06/10 10:32:56;;;;;;;7.25;2.50;;;22.70;97.80;;;;;;5083003;28;20486;-53
2022/06/10 10:35:23;;;;;;;5.85;2.22;;;22.90;92.00;;;;;;5090515;28;20027;-52
2022/06/10 10:38:00;;;;;;;3.80;1.70;;;23.00;92.30;;;;;;5101931;28;20404;-53
2022/06/10 10:40:39;;;;;;;5.63;2.25;;;23.00;94.50;;;;;;5103898;28;20497;-54
2022/06/10 10:43:18;;;;;;;5.78;2.13;;;22.80;93.60;;;;;;5102469;28;20026;-53
2022/06/10 10:46:06;;;;;;;5.18;2.20;;;23.00;96.90;;;;;;5085430;28;20134;-50
2022/06/10 10:48:37;;;;;;;6.07;2.22;;;23.10;94.50;;;;;;5097843;28;20031;-51
2022/06/10 10:51:19;;;;;;;5.30;1.42;;;23.30;92.90;;;;;;5101551;28;20643;-49
2022/06/10 10:53:56;;;;;;;3.72;1.83;;;23.50;95.00;;;;;;5106553;28;20062;-51
2022/06/10 10:56:35;;;;;;;1.98;1.50;;;23.70;91.20;;;;;;5096303;28;20026;-51
2022/06/10 10:59:01;;;;;;;4.18;1.50;;;23.90;93.20;;;;;;5107627;28;20072;-50
2022/06/10 11:01:46;;;;;;;6.05;2.10;;;23.90;91.40;;;;;;5099528;28;20417;-52
2022/06/10 11:04:25;;;;;;;6.35;2.03;;;23.80;90.10;;;;;;5103366;28;20410;-48
2022/06/10 11:07:18;;;;;;;5.13;2.05;;;23.70;91.20;;;;;;5101108;28;20020;-50
2022/06/10 11:09:45;;;;;;;7.05;2.33;;;23.40;87.90;;;;;;5083905;28;20019;-52
2022/06/10 11:12:16;;;;;;;6.82;2.13;;;23.10;91.00;;;;;;5096325;28;20047;-52
2022/06/10 11:14:49;;;;;;;4.30;2.30;;;22.60;91.60;;;;;;5104829;28;20103;-51
2022/06/10 11:17:22;;;;;;;3.65;2.05;;;22.50;92.00;;;;;;5095856;28;20077;-53
2022/06/10 11:19:56;;;;;;;4.20;1.95;;;22.40;92.70;;;;;;5088000;28;20401;-51
2022/06/10 11:22:30;;;;;;;3.53;1.80;;;22.40;93.90;;;;;;5095493;28;20035;-50
2022/06/10 11:25:16;;;;;;;4.47;1.73;;;22.40;94.70;;;;;;5107196;28;20024;-52
2022/06/10 11:27:48;;;;;;;3.25;1.85;;;22.40;93.30;;;;;;5080995;28;20024;-53
2022/06/10 11:30:14;;;;;;;4.50;1.85;;;22.40;93.10;;;;;;5102658;28;20513;-55
2022/06/10 11:32:48;;;;;;;7.72;2.35;;;22.40;91.90;;;;;;5101280;28;20031;-52
2022/06/10 11:35:31;;;;;;;4.38;1.52;;;22.50;91.90;;;;;;5087130;28;20098;-50
2022/06/10 11:38:16;;;;;;;3.85;1.98;;;22.60;92.20;;;;;;5100662;28;20070;-49
2022/06/10 11:40:50;;;;;;;2.80;1.60;;;22.90;93.90;;;;;;5102867;28;20022;-55
2022/06/10 11:43:27;;;;;;;4.88;1.80;;;23.00;91.70;;;;;;5083975;28;20469;-50
2022/06/10 11:46:05;;;;;;;6.18;2.00;;;23.00;93.10;;;;;;5101685;28;20591;-50
2022/06/10 11:48:54;;;;;;;3.65;1.80;;;22.90;92.50;;;;;;5102570;28;20119;-50
2022/06/10 11:51:32;;;;;;;3.35;1.90;;;22.70;93.00;;;;;;5095559;28;20048;-50
2022/06/10 11:54:15;;;;;;;3.45;1.75;;;22.70;93.70;;;;;;5105782;28;20028;-50
2022/06/10 11:59:55;;;;;;;5.50;1.60;;;22.90;93.40;;;;;;5094054;28;20032;-49
2022/06/10 12:02:40;;;;;;;4.07;1.80;;;23.10;93.00;;;;;;5089938;28;20242;-49
2022/06/10 12:05:16;;;;;;;3.08;1.55;;;23.30;92.60;;;;;;5099900;28;20012;-52
2022/06/10 12:08:09;;;;;;;5.10;1.58;;;23.40;91.50;;;;;;5102175;28;20051;-52
2022/06/10 12:10:53;;;;;;;2.92;1.90;;;23.50;91.10;;;;;;5080067;28;20037;-50
2022/06/10 12:13:20;;;;;;;3.33;1.85;;;23.50;91.70;;;;;;5086077;28;20023;-49
2022/06/10 12:15:54;;;;;;;1.75;1.30;;;23.50;90.00;;;;;;5100134;28;20020;-51
2022/06/10 12:18:23;;;;;;;4.57;1.30;;;23.60;89.10;;;;;;5088227;28;20031;-50
2022/06/10 12:20:57;;;;;;;3.28;1.75;;;23.70;90.90;;;;;;5100187;28;20021;-53
2022/06/10 12:23:33;;;;;;;2.58;1.60;;;23.90;90.80;;;;;;5096771;28;20446;-51
2022/06/10 12:26:18;;;;;;;6.93;2.03;;;23.90;91.60;;;;;;5101407;28;20097;-53
2022/06/10 12:28:47;;;;;;;4.32;1.70;;;23.70;90.80;;;;;;5083254;28;20051;-51
2022/06/10 12:31:25;;;;;;;6.75;2.00;;;23.60;89.40;;;;;;5099096;28;20503;-51
2022/06/10 12:34:09;;;;;;;5.20;2.60;;;23.60;90.00;;;;;;5101162;28;20031;-54
2022/06/10 12:36:49;;;;;;;3.10;2.00;;;23.60;90.70;;;;;;5096870;28;20020;-50
2022/06/10 12:39:39;;;;;;;2.55;1.88;;;23.70;90.30;;;;;;5093555;28;20024;-52
2022/06/10 12:42:18;;;;;;;3.53;2.13;;;23.70;90.60;;;;;;5105427;28;20102;-50
2022/06/10 12:44:54;;;;;;;3.00;2.15;;;23.60;91.50;;;;;;5097880;28;20022;-52
2022/06/10 12:47:31;;;;;;;7.07;2.17;;;23.50;92.20;;;;;;5068789;28;20016;-51
2022/06/10 12:50:03;;;;;;;4.05;1.98;;;23.50;92.20;;;;;;5099156;28;20062;-49
2022/06/10 12:52:29;;;;;;;4.97;2.38;;;23.50;92.70;;;;;;5101389;28;20445;-50
2022/06/10 12:55:24;;;;;;;6.47;2.33;;;23.50;93.60;;;;;;5100164;28;20127;-51
2022/06/10 12:57:51;;;;;;;3.40;2.05;;;23.50;93.40;;;;;;5091989;28;20043;-50
2022/06/10 13:00:22;;;;;;;3.70;1.80;;;23.50;93.00;;;;;;5101671;28;20016;-52
2022/06/10 13:02:55;;;;;;;3.70;2.35;;;23.40;94.60;;;;;;5101043;28;20016;-52
2022/06/10 13:05:43;;;;;;;4.50;2.20;;;23.30;92.30;;;;;;5074802;28;20470;-51
2022/06/10 13:08:30;;;;;;;6.35;2.35;;;23.30;95.10;;;;;;5100981;28;20036;-51
2022/06/10 13:10:57;;;;;;;6.10;3.00;;;23.20;93.70;;;;;;5089769;28;20678;-52
2022/06/10 13:13:24;;;;;;;7.03;2.80;;;23.20;94.50;;;;;;5101032;28;20024;-50
2022/06/10 13:15:53;;;;;;;6.65;2.83;;;23.20;94.10;;;;;;5080647;28;20081;-52
2022/06/10 13:18:19;;;;;;;7.50;3.40;;;23.30;95.90;;;;;;5101350;28;20057;-50
2022/06/10 13:20:47;;;;;;;4.00;2.47;;;23.40;96.30;;;;;;5081803;28;20033;-50
2022/06/10 13:23:24;;;;;;;4.82;2.08;;;23.40;96.50;;;;;;5100498;28;20027;-47
2022/06/10 13:26:12;;;;;;;7.35;2.42;;;23.30;97.80;;;;;;5104594;28;20609;-51
2022/06/10 13:28:43;;;;;;;4.13;1.83;;;23.40;96.40;;;;;;5105393;28;20027;-51